Latest Weather Observations for Bourke

IDN60801

Issued at 2:52 am EST Tuesday 20 August 2019 (issued every 10 minutes, with the page automatically refreshed every 10 minutes)

About weather observations | Map of weather stations | Latest weather observations for NSW | Other Formats
Station Details ID: 048245 Name: BOURKE AIRPORT AWS Lat: -30.04 Lon: 145.95 Height: 107.3 m
Data from the previous 72 hours. | See also: Recent months at Bourke
Date/Time
EST
Temp
°C
App
Temp
°C
Dew
Point
°C
Rel
Hum
%
Delta-T
°C
Wind Press
QNH
hPa
Press
MSL
hPa
Rain since
9am
mm
Dir  Spd
km/h
Gust
km/h
Spd
kts
Gust
kts
20/02:30am 6.9 1.8 -5.4 41 4.2 SSW 13 17 7 9 1029.6 1029.6 0.0
20/02:00am 6.6 1.8 -6.0 40 4.2 SSW 11 13 6 7 1029.9 1029.9 0.0
20/01:30am 7.0 1.8 -6.0 39 4.4 SSW 13 15 7 8 1029.8 1029.8 0.0
20/01:00am 7.3 2.1 -6.1 38 4.5 SSW 13 15 7 8 1029.9 1029.9 0.0
20/12:30am 7.0 2.2 -6.3 38 4.5 SSW 11 13 6 7 1029.9 1029.9 0.0
20/12:00am 7.4 2.2 -6.7 36 4.7 SSW 13 17 7 9 1029.9 1029.9 0.0
 
Date/Time
EST
Temp
°C
App
Temp
°C
Dew
Point
°C
Rel
Hum
%
Delta-T
°C
Wind Press
QNH
hPa
Press
MSL
hPa
Rain since
9am
mm
Dir  Spd
km/h
Gust
km/h
Spd
kts
Gust
kts
19/11:30pm 8.5 3.3 -6.4 34 5.1 SSW 13 15 7 8 1030.0 1030.0 0.0
19/11:00pm 9.1 3.9 -5.9 34 5.2 SSW 13 19 7 10 1030.0 1030.0 0.0
19/10:30pm 7.1 2.6 -7.3 35 4.7 SW 9 11 5 6 1029.5 1029.5 0.0
19/10:00pm 7.9 3.4 -7.0 34 4.9 SSW 9 11 5 6 1029.3 1029.3 0.0
19/09:30pm 8.4 3.9 -6.9 33 5.1 SSW 9 11 5 6 1029.1 1029.1 0.0
19/09:00pm 8.9 4.4 -6.9 32 5.3 SW 9 11 5 6 1028.7 1028.8 0.0
19/08:30pm 9.5 5.0 -7.2 30 5.7 SSW 9 11 5 6 1028.4 1028.5 0.0
19/08:00pm 10.4 5.9 -6.4 30 5.8 SW 9 11 5 6 1028.0 1028.1 0.0
19/07:30pm 11.5 6.2 -6.8 27 6.4 SSW 13 17 7 9 1027.5 1027.6 0.0
19/07:00pm 12.4 7.1 -7.0 25 6.8 SSW 13 15 7 8 1026.8 1026.9 0.0
19/06:30pm 13.1 7.4 -7.0 24 7.2 SSW 15 24 8 13 1026.2 1026.3 0.0
19/06:00pm 13.8 7.4 -6.4 24 7.3 SSW 19 28 10 15 1025.8 1025.8 0.0
19/05:30pm 14.7 8.1 -6.8 22 7.8 SSW 20 28 11 15 1025.5 1025.5 0.0
19/05:00pm 15.7 9.2 -5.9 22 8.1 SSW 20 32 11 17 1025.1 1025.1 0.0
19/04:30pm 15.8 9.3 -5.8 22 8.2 SW 20 28 11 15 1024.8 1024.8 0.0
19/04:00pm 15.8 9.4 -4.7 24 7.9 SW 20 33 11 18 1024.4 1024.4 0.0
19/03:30pm 16.4 9.2 -5.3 22 8.3 SW 24 39 13 21 1024.2 1024.2 0.0
19/03:00pm 16.2 9.8 -4.9 23 8.1 WSW 20 35 11 19 1024.1 1024.1 0.0
19/02:30pm 16.0 8.8 -5.7 22 8.2 SW 24 39 13 21 1024.2 1024.2 0.0
19/02:00pm 15.7 8.5 -5.3 23 8.0 SW 24 39 13 21 1024.2 1024.2 0.0
19/01:30pm 15.5 8.8 -4.4 25 7.7 SW 22 37 12 20 1024.5 1024.5 0.0
19/01:00pm 15.5 9.0 -2.4 29 7.2 WSW 22 37 12 20 1024.5 1024.5 0.0
19/12:30pm 14.6 8.2 -1.5 33 6.6 SW 22 35 12 19 1024.7 1024.7 0.0
19/12:00pm 14.6 8.6 -1.5 33 6.6 SW 20 32 11 17 1025.0 1025.0 0.0
19/11:30am 13.7 7.4 -1.1 36 6.1 SW 22 30 12 16 1025.2 1025.2 0.0
19/11:00am 13.2 7.0 -0.1 40 5.5 SW 22 33 12 18 1025.4 1025.4 0.0
19/10:30am 13.1 6.6 0.2 41 5.4 SW 24 37 13 20 1025.5 1025.5 0.0
19/10:00am 12.4 5.2 0.5 44 5.0 SW 28 39 15 21 1025.3 1025.3 0.0
19/09:30am 12.3 5.9 0.7 45 4.9 SSW 24 32 13 17 1024.8 1024.8 0.0
19/09:00am 11.4 5.7 -0.7 43 4.9 SSW 19 28 10 15 1024.5 1024.5 0.0
19/08:30am 11.3 5.6 -0.8 43 4.9 SSW 19 24 10 13 1024.0 1024.0 0.0
19/08:00am 9.9 4.3 -2.7 41 4.7 SSW 17 20 9 11 1023.5 1023.5 0.0
19/07:30am 8.5 3.1 -4.6 39 4.7 SSW 15 20 8 11 1022.9 1022.9 0.0
19/07:00am 7.6 2.8 -6.5 36 4.7 SSW 11 15 6 8 1022.1 1022.1 0.0
19/06:30am 8.0 2.4 -6.9 34 5.0 SSW 15 20 8 11 1021.5 1021.5 0.0
19/06:00am 7.7 2.4 -7.1 34 4.9 SW 13 17 7 9 1020.7 1020.7 0.0
19/05:30am 8.1 3.3 -6.4 35 4.9 WSW 11 15 6 8 1020.1 1020.1 0.0
19/05:00am 7.2 2.6 -7.6 34 4.8 SW 9 11 5 6 1019.6 1019.6 0.0
19/04:30am 8.2 4.1 -7.1 33 5.1 W 7 9 4 5 1019.1 1019.2 0.0
19/04:00am 8.8 4.3 -7.0 32 5.3 WSW 9 13 5 7 1018.9 1019.0 0.0
19/03:30am 9.3 4.4 -6.9 31 5.5 WSW 11 15 6 8 1018.8 1018.9 0.0
19/03:00am 9.4 4.5 -7.3 30 5.6 SW 11 13 6 7 1018.6 1018.7 0.0
19/02:30am 11.2 5.6 -6.6 28 6.2 WSW 15 20 8 11 1018.6 1018.7 0.0
19/02:00am 11.7 6.8 -7.1 26 6.5 WSW 11 19 6 10 1018.5 1018.6 0.0
19/01:30am 13.1 7.9 -6.5 25 7.1 WSW 13 20 7 11 1018.4 1018.5 0.0
19/01:00am 13.7 7.8 -5.9 25 7.2 WSW 17 22 9 12 1018.3 1018.4 0.0
19/12:30am 14.7 8.4 -6.2 23 7.7 SW 19 32 10 17 1018.1 1018.1 0.0
19/12:00am 15.0 9.3 -3.8 27 7.3 WSW 17 28 9 15 1017.8 1017.8 0.0
 
Date/Time
EST
Temp
°C
App
Temp
°C
Dew
Point
°C
Rel
Hum
%
Delta-T
°C
Wind Press
QNH
hPa
Press
MSL
hPa
Rain since
9am
mm
Dir  Spd
km/h
Gust
km/h
Spd
kts
Gust
kts
18/11:30pm 15.4 9.6 -1.6 31 7.0 WSW 19 28 10 15 1017.3 1017.3 0.0
18/11:00pm 16.2 10.5 -0.9 31 7.2 WSW 19 28 10 15 1017.0 1017.0 0.0
18/10:30pm 16.6 11.7 -0.6 31 7.3 WSW 15 22 8 12 1016.3 1016.3 0.0
18/10:00pm 17.2 11.5 -0.5 30 7.6 WSW 19 26 10 14 1016.0 1016.0 0.0
18/09:30pm 17.7 12.0 -0.5 29 7.8 WSW 19 26 10 14 1015.8 1015.8 0.0
18/09:00pm 18.3 11.6 -1.0 27 8.3 WSW 24 35 13 19 1015.4 1015.4 0.0
18/08:30pm 19.1 11.3 -0.8 26 8.6 WSW 30 50 16 27 1014.7 1014.7 0.0
18/08:07pm 20.2 12.2 0.1 26 9.0 WSW 32 50 17 27 1014.3 1014.3 0.0
18/08:00pm 20.5 13.3 0.4 26 9.0 WSW 28 44 15 24 1014.1 1014.1 0.0
18/07:40pm 21.2 14.0 0.4 25 9.4 WSW 28 46 15 25 1013.7 1013.7 0.0
18/07:30pm 21.6 15.5 0.2 24 9.7 WSW 22 39 12 21 1013.5 1013.5 0.0
18/07:00pm 22.9 15.5 -0.6 21 10.6 WSW 28 48 15 26 1012.6 1012.6 0.0
18/06:46pm 23.4 15.9 -1.5 19 11.0 WSW 28 46 15 25 1012.2 1012.2 0.0
18/06:30pm 24.2 16.0 -4.0 15 12.0 WSW 30 46 16 25 1011.6 1011.6 0.0
18/06:00pm 27.4 19.5 -4.5 12 13.9 W 28 48 15 26 1010.5 1010.5 0.0
18/05:30pm 28.8 21.8 -3.4 12 14.4 NW 24 39 13 21 1009.7 1009.6 0.0
18/05:00pm 29.4 21.7 -2.9 12 14.7 WNW 28 37 15 20 1009.4 1009.4 0.0
18/04:30pm 29.7 21.1 -3.9 11 15.0 NW 32 56 17 30 1009.2 1009.2 0.0
18/04:01pm 30.4 22.1 -4.6 10 15.5 NW 30 50 16 27 1009.1 1009.1 0.0
18/04:00pm 30.6 22.9 -3.2 11 15.4 NW 28 44 15 24 1009.2 1009.2 0.0
18/03:32pm 30.8 22.7 -3.0 11 15.5 NW 30 48 16 26 1009.3 1009.3 0.0
18/03:30pm 30.5 22.0 -3.3 11 15.4 NW 32 48 17 26 1009.3 1009.3 0.0
18/03:23pm 30.5 22.8 -3.3 11 15.4 NNW 28 48 15 26 1009.2 1009.2 0.0
18/03:00pm 29.9 22.6 -2.6 12 14.9 NNW 26 39 14 21 1009.6 1009.5 0.0
18/02:30pm 30.0 22.7 -2.5 12 14.9 NNW 26 39 14 21 1010.1 1010.0 0.0
18/02:00pm 29.9 22.5 -0.5 14 14.5 NNW 28 43 15 23 1010.9 1010.9 0.0
18/01:30pm 29.3 21.9 -0.9 14 14.2 NNW 28 41 15 22 1011.5 1011.5 0.0
18/01:00pm 29.2 21.1 -0.1 15 14.0 NNW 32 52 17 28 1012.1 1012.1 0.0
18/12:44pm 28.8 21.4 -0.4 15 13.8 NNW 28 46 15 25 1012.4 1012.4 0.0
18/12:30pm 29.3 21.6 0.0 15 14.0 NNW 30 41 16 22 1012.9 1012.9 0.0
18/12:00pm 27.8 19.9 -1.2 15 13.4 N 30 43 16 23 1013.5 1013.5 0.0
18/11:30am 28.4 20.1 -1.6 14 13.8 N 32 43 17 23 1014.1 1014.1 0.0
18/11:00am 26.4 18.9 -4.2 13 13.2 NNE 26 33 14 18 1014.6 1014.6 0.0
18/10:30am 25.1 17.9 -5.2 13 12.7 NNE 24 33 13 18 1015.3 1015.3 0.0
18/10:00am 23.5 15.4 -6.5 13 12.1 NNE 28 37 15 20 1015.5 1015.5 0.0
18/09:30am 22.0 13.8 -7.6 13 11.5 NNE 28 37 15 20 1015.6 1015.6 0.0
18/09:00am 20.3 12.8 -8.0 14 10.7 NNE 24 35 13 19 1016.1 1016.1 0.0
18/08:30am 18.1 11.5 -7.3 17 9.5 NE 20 26 11 14 1016.2 1016.2 0.0
18/08:00am 15.4 9.0 -6.8 21 8.2 NE 19 26 10 14 1016.1 1016.1 0.0
18/07:30am 11.1 5.8 -7.2 27 6.3 NE 13 15 7 8 1016.2 1016.2 0.0
18/07:00am 9.2 3.9 -7.4 30 5.6 NE 13 15 7 8 1016.1 1016.1 0.0
18/06:30am 9.0 3.7 -6.8 32 5.4 ENE 13 13 7 7 1016.0 1016.0 0.0
18/06:00am 7.7 2.8 -7.5 33 5.0 NE 11 13 6 7 1015.9 1015.9 0.0
18/05:30am 7.7 2.8 -7.5 33 5.0 NE 11 13 6 7 1015.8 1015.8 0.0
18/05:00am 8.3 3.4 -7.4 32 5.2 NE 11 13 6 7 1015.8 1015.8 0.0
18/04:30am 8.8 3.9 -7.4 31 5.4 NE 11 13 6 7 1015.9 1015.9 0.0
18/04:00am 9.4 4.4 -7.7 29 5.7 NE 11 13 6 7 1016.0 1016.0 0.0
18/03:30am 9.1 4.2 -7.1 31 5.5 NE 11 13 6 7 1016.0 1016.0 0.0
18/03:00am 9.8 5.3 -6.9 30 5.7 ENE 9 11 5 6 1016.3 1016.3 0.0
18/02:30am 10.8 6.0 -6.5 29 6.1 ENE 11 13 6 7 1016.4 1016.4 0.0
18/02:00am 11.4 6.2 -6.0 29 6.2 ENE 13 15 7 8 1016.8 1016.8 0.0
18/01:30am 10.6 5.7 -6.7 29 6.0 ENE 11 13 6 7 1017.1 1017.1 0.0
18/01:00am 10.5 5.9 -7.7 27 6.2 ENE 9 13 5 7 1017.4 1017.4 0.0
18/12:30am 11.4 6.5 -6.9 27 6.4 ENE 11 13 6 7 1017.3 1017.3 0.0
18/12:00am 10.4 5.6 -5.6 32 5.7 E 11 13 6 7 1017.5 1017.5 0.0
 
Date/Time
EST
Temp
°C
App
Temp
°C
Dew
Point
°C
Rel
Hum
%
Delta-T
°C
Wind Press
QNH
hPa
Press
MSL
hPa
Rain since
9am
mm
Dir  Spd
km/h
Gust
km/h
Spd
kts
Gust
kts
17/11:30pm 10.4 6.1 -5.2 33 5.6 ESE 9 11 5 6 1017.7 1017.7 0.0
17/11:00pm 10.6 6.5 -6.7 29 6.0 ENE 7 9 4 5 1017.7 1017.7 0.0
17/10:30pm 11.0 6.9 -6.8 28 6.2 NE 7 9 4 5 1017.7 1017.7 0.0
17/10:00pm 12.1 8.3 -4.1 32 6.1 ENE 7 9 4 5 1017.8 1017.8 0.0
17/09:30pm 12.2 8.3 -4.8 30 6.3 E 7 9 4 5 1017.7 1017.7 0.0
17/09:00pm 12.5 8.5 -5.5 28 6.6 E 7 7 4 4 1017.6 1017.6 0.0
17/08:30pm 13.1 8.9 -7.5 23 7.3 SE 7 7 4 4 1017.6 1017.6 0.0
17/08:00pm 14.3 10.2 -7.1 22 7.7 SSE 7 9 4 5 1017.3 1017.3 0.0
17/07:30pm 15.9 12.1 -5.2 23 8.1 E 6 7 3 4 1017.1 1017.1 0.0
17/07:00pm 16.9 12.8 -6.8 19 8.9 SE 7 9 4 5 1016.7 1016.7 0.0
17/06:30pm 18.3 13.7 -7.9 16 9.7 SE 9 9 5 5 1016.6 1016.6 0.0
17/06:00pm 21.1 17.8 -8.4 13 11.2 S 2 7 1 4 1016.5 1016.5 0.0
17/05:30pm 25.3 21.1 -7.2 11 13.2 WNW 7 11 4 6 1016.5 1016.5 0.0
17/05:00pm 26.1 22.2 -6.6 11 13.5 NW 6 9 3 5 1016.3 1016.3 0.0
17/04:30pm 26.6 22.7 -6.2 11 13.7 NW 6 11 3 6 1016.1 1016.1 0.0
17/04:00pm 26.1 21.6 -6.6 11 13.5 SW 9 17 5 9 1016.0 1016.0 0.0
17/03:30pm 26.4 21.6 -6.4 11 13.6 W 11 19 6 10 1016.1 1016.1 0.0
17/03:00pm 26.7 21.1 -6.2 11 13.7 NW 15 26 8 14 1016.3 1016.3 0.0
17/02:30pm 26.1 21.6 -6.6 11 13.5 SW 9 17 5 9 1016.4 1016.4 0.0
17/02:00pm 25.8 21.0 -5.7 12 13.2 NW 11 17 6 9 1016.6 1016.6 0.0
17/01:30pm 25.5 20.7 -6.0 12 13.1 NW 11 15 6 8 1017.3 1017.3 0.0
17/01:00pm 24.9 20.9 -5.4 13 12.6 NW 7 13 4 7 1017.9 1017.9 0.0
17/12:30pm 24.2 19.4 -5.9 13 12.4 N 11 19 6 10 1018.2 1018.2 0.0
17/12:00pm 23.6 18.9 -5.4 14 11.9 N 11 15 6 8 1018.6 1018.7 0.0
17/11:30am 22.7 18.8 -4.4 16 11.3 E 7 19 4 10 1019.4 1019.4 0.0
17/11:00am 21.5 17.5 -2.4 20 10.2 E 9 15 5 8 1019.5 1019.5 0.0
17/10:30am 20.7 16.5 -1.1 23 9.5 ENE 11 15 6 8 1019.6 1019.6 0.0
17/10:00am 19.3 13.9 -1.2 25 8.8 E 17 20 9 11 1019.6 1019.6 0.0
17/09:30am 17.6 12.6 -1.1 28 7.9 E 15 19 8 10 1019.6 1019.6 0.0
17/09:00am 15.4 10.9 -3.5 27 7.4 E 11 15 6 8 1019.8 1019.8 0.0
17/08:30am 12.4 7.1 -7.0 25 6.9 SE 13 17 7 9 1019.8 1019.8 0.0
17/08:00am 10.2 4.8 -8.4 26 6.2 SSE 13 19 7 10 1019.7 1019.7 0.0
17/07:30am 5.9 1.4 -7.3 38 4.2 S 9 9 5 5 1019.5 1019.5 0.0
17/07:00am 3.4 0.4 -8.9 40 3.9 CALM 0 0 0 0 1019.1 1019.2 0.0
17/06:30am 3.8 -0.5 -9.2 38 4.1 S 7 9 4 5 1018.8 1018.9 0.0
17/06:00am 4.5 0.2 -8.9 37 4.0 SSW 7 11 4 6 1018.4 1018.5 0.0
17/05:30am 4.9 0.8 -8.9 36 4.2 SW 6 7 3 4 1017.8 1017.8 0.0
17/05:00am 5.1 1.8 -8.4 37 4.2 WNW 2 11 1 6 1017.7 1017.7 0.0
17/04:30am 5.0 2.0 -9.5 34 4.3 CALM 0 0 0 0 1017.5 1017.5 0.0
17/04:00am 5.2 2.2 -9.0 35 4.3 CALM 0 0 0 0 1017.5 1017.5 0.0
17/03:30am 5.6 2.6 -9.8 32 4.6 CALM 0 0 0 0 1017.5 1017.5 0.0
17/03:00am 5.3 2.2 -10.0 32 4.5 CALM 0 0 0 0 1017.6 1017.6 0.0

Other formats

Comma delimited format used in spreadsheet applications
http://www.bom.gov.au/fwo/IDN60801/IDN60801.94703.axf

JavaScript Object Notation format (JSON) in row-major order
http://www.bom.gov.au/fwo/IDN60801/IDN60801.94703.json

Data quality

Most of these data are generated automatically and are frequently updated. Quality checks on data are not normally performed. It is possible for incorrect values to appear. Refer to information at About Latest Weather Observations and please check the disclaimer before using these data.